sensor_id;sensor_type;location;lat;lon;timestamp;P1;durP1;ratioP1;P2;durP2;ratioP2
47844;SDS011;33605;48.822;8.796;2023-04-24T00:01:13;1.07;;;1.00;;
47844;SDS011;33605;48.822;8.796;2023-04-24T00:03:40;2.17;;;1.40;;
47844;SDS011;33605;48.822;8.796;2023-04-24T00:06:06;1.53;;;1.40;;
47844;SDS011;33605;48.822;8.796;2023-04-24T00:08:33;1.30;;;1.20;;
47844;SDS011;33605;48.822;8.796;2023-04-24T00:11:01;1.23;;;1.13;;
47844;SDS011;33605;48.822;8.796;2023-04-24T00:13:28;1.40;;;1.20;;
47844;SDS011;33605;48.822;8.796;2023-04-24T00:15:54;1.87;;;1.10;;
47844;SDS011;33605;48.822;8.796;2023-04-24T00:18:20;1.87;;;1.50;;
47844;SDS011;33605;48.822;8.796;2023-04-24T00:20:45;1.70;;;1.60;;
47844;SDS011;33605;48.822;8.796;2023-04-24T00:23:11;2.10;;;1.30;;
47844;SDS011;33605;48.822;8.796;2023-04-24T00:25:37;1.60;;;1.47;;
47844;SDS011;33605;48.822;8.796;2023-04-24T00:28:03;2.67;;;1.30;;
47844;SDS011;33605;48.822;8.796;2023-04-24T00:30:29;2.07;;;1.33;;
47844;SDS011;33605;48.822;8.796;2023-04-24T00:32:54;1.07;;;0.97;;
47844;SDS011;33605;48.822;8.796;2023-04-24T00:35:21;2.17;;;1.20;;
47844;SDS011;33605;48.822;8.796;2023-04-24T00:37:48;2.43;;;1.27;;
47844;SDS011;33605;48.822;8.796;2023-04-24T00:40:13;1.27;;;1.17;;
47844;SDS011;33605;48.822;8.796;2023-04-24T00:42:40;1.90;;;1.17;;
47844;SDS011;33605;48.822;8.796;2023-04-24T00:45:06;1.87;;;1.20;;
47844;SDS011;33605;48.822;8.796;2023-04-24T00:47:32;1.30;;;1.20;;
47844;SDS011;33605;48.822;8.796;2023-04-24T00:50:00;2.73;;;1.20;;
47844;SDS011;33605;48.822;8.796;2023-04-24T00:52:30;1.30;;;1.20;;
47844;SDS011;33605;48.822;8.796;2023-04-24T00:54:57;1.50;;;1.20;;
47844;SDS011;33605;48.822;8.796;2023-04-24T00:57:23;1.30;;;1.20;;
47844;SDS011;33605;48.822;8.796;2023-04-24T00:59:50;1.10;;;1.00;;
47844;SDS011;33605;48.822;8.796;2023-04-24T01:02:18;1.10;;;1.00;;
47844;SDS011;33605;48.822;8.796;2023-04-24T01:04:45;1.20;;;1.10;;
47844;SDS011;33605;48.822;8.796;2023-04-24T01:07:11;1.40;;;1.03;;
47844;SDS011;33605;48.822;8.796;2023-04-24T01:09:40;1.97;;;1.20;;
47844;SDS011;33605;48.822;8.796;2023-04-24T01:12:06;2.10;;;1.43;;
47844;SDS011;33605;48.822;8.796;2023-04-24T01:14:32;2.63;;;1.10;;
47844;SDS011;33605;48.822;8.796;2023-04-24T01:16:58;1.70;;;1.20;;
47844;SDS011;33605;48.822;8.796;2023-04-24T01:19:25;1.30;;;1.20;;
47844;SDS011;33605;48.822;8.796;2023-04-24T01:21:51;4.73;;;1.17;;
47844;SDS011;33605;48.822;8.796;2023-04-24T01:24:19;1.33;;;1.17;;
47844;SDS011;33605;48.822;8.796;2023-04-24T01:26:45;1.20;;;1.10;;
47844;SDS011;33605;48.822;8.796;2023-04-24T01:29:11;1.57;;;1.30;;
47844;SDS011;33605;48.822;8.796;2023-04-24T01:31:38;1.20;;;1.10;;
47844;SDS011;33605;48.822;8.796;2023-04-24T01:34:04;2.30;;;1.63;;
47844;SDS011;33605;48.822;8.796;2023-04-24T01:36:30;2.23;;;1.30;;
47844;SDS011;33605;48.822;8.796;2023-04-24T01:38:58;2.03;;;1.20;;
47844;SDS011;33605;48.822;8.796;2023-04-24T01:41:23;1.93;;;1.30;;
47844;SDS011;33605;48.822;8.796;2023-04-24T01:43:49;1.73;;;1.20;;
47844;SDS011;33605;48.822;8.796;2023-04-24T01:46:15;1.20;;;1.10;;
47844;SDS011;33605;48.822;8.796;2023-04-24T01:48:41;1.83;;;1.27;;
47844;SDS011;33605;48.822;8.796;2023-04-24T01:51:07;1.93;;;0.93;;
47844;SDS011;33605;48.822;8.796;2023-04-24T01:53:32;1.10;;;1.00;;
47844;SDS011;33605;48.822;8.796;2023-04-24T01:55:58;1.00;;;0.90;;
47844;SDS011;33605;48.822;8.796;2023-04-24T01:58:26;1.73;;;1.17;;
47844;SDS011;33605;48.822;8.796;2023-04-24T02:00:52;1.50;;;1.20;;
47844;SDS011;33605;48.822;8.796;2023-04-24T02:03:17;1.40;;;1.30;;
47844;SDS011;33605;48.822;8.796;2023-04-24T02:05:44;1.40;;;1.30;;
47844;SDS011;33605;48.822;8.796;2023-04-24T02:08:10;1.57;;;1.47;;
47844;SDS011;33605;48.822;8.796;2023-04-24T02:10:35;1.40;;;1.30;;
47844;SDS011;33605;48.822;8.796;2023-04-24T02:13:01;1.50;;;1.10;;
47844;SDS011;33605;48.822;8.796;2023-04-24T02:15:27;2.07;;;1.37;;
47844;SDS011;33605;48.822;8.796;2023-04-24T02:17:53;1.30;;;1.20;;
47844;SDS011;33605;48.822;8.796;2023-04-24T02:20:18;1.20;;;1.10;;
47844;SDS011;33605;48.822;8.796;2023-04-24T02:22:44;1.60;;;1.50;;
47844;SDS011;33605;48.822;8.796;2023-04-24T02:25:10;3.13;;;1.20;;
47844;SDS011;33605;48.822;8.796;2023-04-24T02:27:35;1.70;;;1.60;;
47844;SDS011;33605;48.822;8.796;2023-04-24T02:30:01;1.40;;;1.30;;
47844;SDS011;33605;48.822;8.796;2023-04-24T02:32:28;1.50;;;1.40;;
47844;SDS011;33605;48.822;8.796;2023-04-24T02:34:53;2.20;;;1.20;;
47844;SDS011;33605;48.822;8.796;2023-04-24T02:37:19;2.10;;;1.37;;
47844;SDS011;33605;48.822;8.796;2023-04-24T02:39:44;1.30;;;1.20;;
47844;SDS011;33605;48.822;8.796;2023-04-24T02:42:10;1.23;;;1.10;;
47844;SDS011;33605;48.822;8.796;2023-04-24T02:44:36;1.40;;;1.30;;
47844;SDS011;33605;48.822;8.796;2023-04-24T02:47:01;1.30;;;1.20;;
47844;SDS011;33605;48.822;8.796;2023-04-24T02:49:27;1.37;;;1.23;;
47844;SDS011;33605;48.822;8.796;2023-04-24T02:51:52;2.93;;;1.37;;
47844;SDS011;33605;48.822;8.796;2023-04-24T02:54:21;1.23;;;1.10;;
47844;SDS011;33605;48.822;8.796;2023-04-24T02:56:46;1.40;;;1.30;;
47844;SDS011;33605;48.822;8.796;2023-04-24T02:59:12;2.60;;;1.20;;
47844;SDS011;33605;48.822;8.796;2023-04-24T03:01:37;1.40;;;1.30;;
47844;SDS011;33605;48.822;8.796;2023-04-24T03:04:03;1.50;;;1.40;;
47844;SDS011;33605;48.822;8.796;2023-04-24T03:06:28;1.30;;;1.20;;
47844;SDS011;33605;48.822;8.796;2023-04-24T03:08:56;1.20;;;1.10;;
47844;SDS011;33605;48.822;8.796;2023-04-24T03:11:22;3.43;;;1.50;;
47844;SDS011;33605;48.822;8.796;2023-04-24T03:13:47;1.63;;;1.53;;
47844;SDS011;33605;48.822;8.796;2023-04-24T03:16:13;1.63;;;1.10;;
47844;SDS011;33605;48.822;8.796;2023-04-24T03:18:38;1.30;;;1.20;;
47844;SDS011;33605;48.822;8.796;2023-04-24T03:21:04;1.30;;;1.20;;
47844;SDS011;33605;48.822;8.796;2023-04-24T03:23:30;1.50;;;1.40;;
47844;SDS011;33605;48.822;8.796;2023-04-24T03:25:55;3.20;;;1.30;;
47844;SDS011;33605;48.822;8.796;2023-04-24T03:28:24;1.30;;;1.20;;
47844;SDS011;33605;48.822;8.796;2023-04-24T03:30:50;4.57;;;1.47;;
47844;SDS011;33605;48.822;8.796;2023-04-24T03:33:16;1.60;;;1.30;;
47844;SDS011;33605;48.822;8.796;2023-04-24T03:35:41;1.40;;;1.30;;
47844;SDS011;33605;48.822;8.796;2023-04-24T03:38:07;1.73;;;1.20;;
47844;SDS011;33605;48.822;8.796;2023-04-24T03:40:32;1.30;;;1.20;;
47844;SDS011;33605;48.822;8.796;2023-04-24T03:42:58;1.87;;;1.30;;
47844;SDS011;33605;48.822;8.796;2023-04-24T03:45:24;1.20;;;1.10;;
47844;SDS011;33605;48.822;8.796;2023-04-24T03:47:50;2.60;;;2.47;;
47844;SDS011;33605;48.822;8.796;2023-04-24T03:50:15;4.10;;;2.33;;
47844;SDS011;33605;48.822;8.796;2023-04-24T03:52:41;2.20;;;1.40;;
47844;SDS011;33605;48.822;8.796;2023-04-24T03:55:07;2.30;;;2.00;;
47844;SDS011;33605;48.822;8.796;2023-04-24T03:57:33;1.40;;;1.30;;
47844;SDS011;33605;48.822;8.796;2023-04-24T03:59:58;1.40;;;1.30;;
47844;SDS011;33605;48.822;8.796;2023-04-24T04:02:24;1.57;;;1.20;;
47844;SDS011;33605;48.822;8.796;2023-04-24T04:04:50;1.40;;;1.30;;
47844;SDS011;33605;48.822;8.796;2023-04-24T04:07:16;2.20;;;1.40;;
47844;SDS011;33605;48.822;8.796;2023-04-24T04:09:41;1.60;;;1.50;;
47844;SDS011;33605;48.822;8.796;2023-04-24T04:12:07;1.50;;;1.40;;
47844;SDS011;33605;48.822;8.796;2023-04-24T04:14:32;1.70;;;1.60;;
47844;SDS011;33605;48.822;8.796;2023-04-24T04:16:58;1.43;;;1.33;;
47844;SDS011;33605;48.822;8.796;2023-04-24T04:19:24;1.40;;;1.30;;
47844;SDS011;33605;48.822;8.796;2023-04-24T04:21:50;1.40;;;1.30;;
47844;SDS011;33605;48.822;8.796;2023-04-24T04:24:18;2.17;;;1.70;;
47844;SDS011;33605;48.822;8.796;2023-04-24T04:26:45;1.53;;;1.43;;
47844;SDS011;33605;48.822;8.796;2023-04-24T04:29:12;1.87;;;1.53;;
47844;SDS011;33605;48.822;8.796;2023-04-24T04:31:38;1.50;;;1.40;;
47844;SDS011;33605;48.822;8.796;2023-04-24T04:34:04;1.30;;;1.20;;
47844;SDS011;33605;48.822;8.796;2023-04-24T04:36:29;4.23;;;1.50;;
47844;SDS011;33605;48.822;8.796;2023-04-24T04:38:55;1.53;;;1.43;;
47844;SDS011;33605;48.822;8.796;2023-04-24T04:41:21;1.80;;;1.70;;
47844;SDS011;33605;48.822;8.796;2023-04-24T04:43:47;2.20;;;1.60;;
47844;SDS011;33605;48.822;8.796;2023-04-24T04:46:14;2.77;;;1.37;;
47844;SDS011;33605;48.822;8.796;2023-04-24T04:48:40;1.57;;;1.40;;
47844;SDS011;33605;48.822;8.796;2023-04-24T04:51:06;1.40;;;1.27;;
47844;SDS011;33605;48.822;8.796;2023-04-24T04:53:32;1.40;;;1.30;;
47844;SDS011;33605;48.822;8.796;2023-04-24T04:55:57;1.70;;;1.60;;
47844;SDS011;33605;48.822;8.796;2023-04-24T04:58:24;2.40;;;1.33;;
47844;SDS011;33605;48.822;8.796;2023-04-24T05:00:50;1.83;;;1.60;;
47844;SDS011;33605;48.822;8.796;2023-04-24T05:03:15;1.87;;;1.70;;
47844;SDS011;33605;48.822;8.796;2023-04-24T05:05:41;2.67;;;1.90;;
47844;SDS011;33605;48.822;8.796;2023-04-24T05:08:07;2.37;;;2.17;;
47844;SDS011;33605;48.822;8.796;2023-04-24T05:10:34;3.00;;;1.90;;
47844;SDS011;33605;48.822;8.796;2023-04-24T05:13:01;2.13;;;1.60;;
47844;SDS011;33605;48.822;8.796;2023-04-24T05:15:28;3.43;;;1.70;;
47844;SDS011;33605;48.822;8.796;2023-04-24T05:17:54;2.83;;;2.20;;
47844;SDS011;33605;48.822;8.796;2023-04-24T05:20:19;2.03;;;1.87;;
47844;SDS011;33605;48.822;8.796;2023-04-24T05:22:45;1.90;;;1.80;;
47844;SDS011;33605;48.822;8.796;2023-04-24T05:25:11;2.10;;;1.77;;
47844;SDS011;33605;48.822;8.796;2023-04-24T05:27:37;2.27;;;2.10;;
47844;SDS011;33605;48.822;8.796;2023-04-24T05:30:03;2.03;;;1.90;;
47844;SDS011;33605;48.822;8.796;2023-04-24T05:32:30;2.10;;;1.90;;
47844;SDS011;33605;48.822;8.796;2023-04-24T05:34:55;2.13;;;2.00;;
47844;SDS011;33605;48.822;8.796;2023-04-24T05:37:21;1.90;;;1.80;;
47844;SDS011;33605;48.822;8.796;2023-04-24T05:39:46;2.00;;;1.90;;
47844;SDS011;33605;48.822;8.796;2023-04-24T05:42:12;2.37;;;2.17;;
47844;SDS011;33605;48.822;8.796;2023-04-24T05:44:38;2.80;;;2.50;;
47844;SDS011;33605;48.822;8.796;2023-04-24T05:47:03;2.47;;;2.27;;
47844;SDS011;33605;48.822;8.796;2023-04-24T05:49:29;2.47;;;2.27;;
47844;SDS011;33605;48.822;8.796;2023-04-24T05:51:55;2.50;;;2.30;;
47844;SDS011;33605;48.822;8.796;2023-04-24T05:54:22;2.60;;;2.17;;
47844;SDS011;33605;48.822;8.796;2023-04-24T05:56:48;3.27;;;2.30;;
47844;SDS011;33605;48.822;8.796;2023-04-24T05:59:15;2.90;;;2.60;;
47844;SDS011;33605;48.822;8.796;2023-04-24T06:01:40;3.07;;;1.97;;
47844;SDS011;33605;48.822;8.796;2023-04-24T06:04:06;2.37;;;2.17;;
47844;SDS011;33605;48.822;8.796;2023-04-24T06:06:32;2.10;;;1.90;;
47844;SDS011;33605;48.822;8.796;2023-04-24T06:08:58;2.17;;;2.07;;
47844;SDS011;33605;48.822;8.796;2023-04-24T06:11:24;4.50;;;3.20;;
47844;SDS011;33605;48.822;8.796;2023-04-24T06:13:49;6.00;;;2.57;;
47844;SDS011;33605;48.822;8.796;2023-04-24T06:16:15;2.33;;;2.17;;
47844;SDS011;33605;48.822;8.796;2023-04-24T06:18:41;3.50;;;2.20;;
47844;SDS011;33605;48.822;8.796;2023-04-24T06:21:06;2.60;;;2.40;;
47844;SDS011;33605;48.822;8.796;2023-04-24T06:23:32;3.80;;;2.50;;
47844;SDS011;33605;48.822;8.796;2023-04-24T06:25:58;2.83;;;2.57;;
47844;SDS011;33605;48.822;8.796;2023-04-24T06:28:24;2.90;;;2.47;;
47844;SDS011;33605;48.822;8.796;2023-04-24T06:30:50;4.30;;;2.53;;
47844;SDS011;33605;48.822;8.796;2023-04-24T06:33:16;2.53;;;2.30;;
47844;SDS011;33605;48.822;8.796;2023-04-24T06:35:41;2.37;;;2.17;;
47844;SDS011;33605;48.822;8.796;2023-04-24T06:38:07;3.67;;;2.87;;
47844;SDS011;33605;48.822;8.796;2023-04-24T06:40:33;3.57;;;2.47;;
47844;SDS011;33605;48.822;8.796;2023-04-24T06:42:58;2.90;;;2.13;;
47844;SDS011;33605;48.822;8.796;2023-04-24T06:45:25;2.60;;;2.40;;
47844;SDS011;33605;48.822;8.796;2023-04-24T06:47:50;2.43;;;2.23;;
47844;SDS011;33605;48.822;8.796;2023-04-24T06:50:16;3.17;;;2.20;;
47844;SDS011;33605;48.822;8.796;2023-04-24T06:52:42;2.50;;;2.13;;
47844;SDS011;33605;48.822;8.796;2023-04-24T06:55:09;2.40;;;2.20;;
47844;SDS011;33605;48.822;8.796;2023-04-24T06:57:36;4.10;;;2.17;;
47844;SDS011;33605;48.822;8.796;2023-04-24T07:00:02;2.30;;;2.10;;
47844;SDS011;33605;48.822;8.796;2023-04-24T07:02:30;3.50;;;3.13;;
47844;SDS011;33605;48.822;8.796;2023-04-24T07:04:55;3.43;;;2.03;;
47844;SDS011;33605;48.822;8.796;2023-04-24T07:07:21;4.33;;;2.27;;
47844;SDS011;33605;48.822;8.796;2023-04-24T07:09:48;2.80;;;2.40;;
47844;SDS011;33605;48.822;8.796;2023-04-24T07:12:15;3.57;;;2.30;;
47844;SDS011;33605;48.822;8.796;2023-04-24T07:14:41;3.03;;;1.83;;
47844;SDS011;33605;48.822;8.796;2023-04-24T07:17:07;2.10;;;2.00;;
47844;SDS011;33605;48.822;8.796;2023-04-24T07:19:33;2.50;;;2.30;;
47844;SDS011;33605;48.822;8.796;2023-04-24T07:22:00;3.10;;;2.50;;
47844;SDS011;33605;48.822;8.796;2023-04-24T07:24:26;2.30;;;2.10;;
47844;SDS011;33605;48.822;8.796;2023-04-24T07:26:52;8.30;;;2.20;;
47844;SDS011;33605;48.822;8.796;2023-04-24T07:29:18;3.90;;;2.03;;
47844;SDS011;33605;48.822;8.796;2023-04-24T07:31:44;2.40;;;2.20;;
47844;SDS011;33605;48.822;8.796;2023-04-24T07:34:10;2.80;;;2.20;;
47844;SDS011;33605;48.822;8.796;2023-04-24T07:36:36;4.10;;;2.60;;
47844;SDS011;33605;48.822;8.796;2023-04-24T07:39:03;3.43;;;2.23;;
47844;SDS011;33605;48.822;8.796;2023-04-24T07:41:29;2.53;;;1.90;;
47844;SDS011;33605;48.822;8.796;2023-04-24T07:43:55;3.27;;;2.10;;
47844;SDS011;33605;48.822;8.796;2023-04-24T07:46:20;2.23;;;2.03;;
47844;SDS011;33605;48.822;8.796;2023-04-24T07:48:46;2.20;;;2.00;;
47844;SDS011;33605;48.822;8.796;2023-04-24T07:51:13;3.70;;;2.00;;
47844;SDS011;33605;48.822;8.796;2023-04-24T07:53:39;2.50;;;2.10;;
47844;SDS011;33605;48.822;8.796;2023-04-24T07:56:05;4.40;;;2.00;;
47844;SDS011;33605;48.822;8.796;2023-04-24T07:58:31;2.27;;;2.17;;
47844;SDS011;33605;48.822;8.796;2023-04-24T08:00:56;3.80;;;2.73;;
47844;SDS011;33605;48.822;8.796;2023-04-24T08:03:22;5.10;;;1.77;;
47844;SDS011;33605;48.822;8.796;2023-04-24T08:05:47;2.53;;;1.97;;
47844;SDS011;33605;48.822;8.796;2023-04-24T08:08:13;2.43;;;1.90;;
47844;SDS011;33605;48.822;8.796;2023-04-24T08:10:39;2.07;;;1.90;;
47844;SDS011;33605;48.822;8.796;2023-04-24T08:13:04;3.30;;;2.60;;
47844;SDS011;33605;48.822;8.796;2023-04-24T08:15:30;2.67;;;1.80;;
47844;SDS011;33605;48.822;8.796;2023-04-24T08:17:56;3.73;;;2.17;;
47844;SDS011;33605;48.822;8.796;2023-04-24T08:20:22;3.60;;;2.03;;
47844;SDS011;33605;48.822;8.796;2023-04-24T08:22:47;2.90;;;2.00;;
47844;SDS011;33605;48.822;8.796;2023-04-24T08:25:13;3.33;;;2.07;;
47844;SDS011;33605;48.822;8.796;2023-04-24T08:27:39;2.53;;;1.80;;
47844;SDS011;33605;48.822;8.796;2023-04-24T08:30:05;3.57;;;1.90;;
47844;SDS011;33605;48.822;8.796;2023-04-24T08:32:31;2.50;;;1.90;;
47844;SDS011;33605;48.822;8.796;2023-04-24T08:34:58;3.40;;;2.30;;
47844;SDS011;33605;48.822;8.796;2023-04-24T08:37:25;1.93;;;1.83;;
47844;SDS011;33605;48.822;8.796;2023-04-24T08:39:51;5.63;;;2.10;;
47844;SDS011;33605;48.822;8.796;2023-04-24T08:42:17;2.23;;;2.07;;
47844;SDS011;33605;48.822;8.796;2023-04-24T08:44:44;2.53;;;2.30;;
47844;SDS011;33605;48.822;8.796;2023-04-24T08:47:10;2.00;;;1.80;;
47844;SDS011;33605;48.822;8.796;2023-04-24T08:49:37;1.97;;;1.70;;
47844;SDS011;33605;48.822;8.796;2023-04-24T08:52:04;4.80;;;2.23;;
47844;SDS011;33605;48.822;8.796;2023-04-24T08:54:30;1.70;;;1.60;;
47844;SDS011;33605;48.822;8.796;2023-04-24T08:57:00;2.00;;;1.80;;
47844;SDS011;33605;48.822;8.796;2023-04-24T08:59:28;4.40;;;1.80;;
47844;SDS011;33605;48.822;8.796;2023-04-24T09:01:55;2.43;;;1.97;;
47844;SDS011;33605;48.822;8.796;2023-04-24T09:04:21;2.40;;;1.70;;
47844;SDS011;33605;48.822;8.796;2023-04-24T09:06:49;2.00;;;1.80;;
47844;SDS011;33605;48.822;8.796;2023-04-24T09:09:22;4.40;;;1.83;;
47844;SDS011;33605;48.822;8.796;2023-04-24T09:11:51;3.20;;;2.20;;
47844;SDS011;33605;48.822;8.796;2023-04-24T09:14:20;2.27;;;2.07;;
47844;SDS011;33605;48.822;8.796;2023-04-24T09:16:46;1.80;;;1.70;;
47844;SDS011;33605;48.822;8.796;2023-04-24T09:19:12;3.50;;;2.00;;
47844;SDS011;33605;48.822;8.796;2023-04-24T09:21:38;3.37;;;2.03;;
47844;SDS011;33605;48.822;8.796;2023-04-24T09:24:05;6.27;;;1.90;;
47844;SDS011;33605;48.822;8.796;2023-04-24T09:26:33;2.00;;;1.63;;
47844;SDS011;33605;48.822;8.796;2023-04-24T09:29:00;2.07;;;1.87;;
47844;SDS011;33605;48.822;8.796;2023-04-24T09:31:26;2.37;;;2.00;;
47844;SDS011;33605;48.822;8.796;2023-04-24T09:33:54;2.57;;;2.27;;
47844;SDS011;33605;48.822;8.796;2023-04-24T09:36:31;2.00;;;1.90;;
47844;SDS011;33605;48.822;8.796;2023-04-24T09:39:01;2.07;;;1.97;;
47844;SDS011;33605;48.822;8.796;2023-04-24T09:41:27;7.03;;;2.03;;
47844;SDS011;33605;48.822;8.796;2023-04-24T09:43:56;1.90;;;1.80;;
47844;SDS011;33605;48.822;8.796;2023-04-24T09:46:30;2.20;;;2.00;;
47844;SDS011;33605;48.822;8.796;2023-04-24T09:49:03;2.00;;;1.80;;
47844;SDS011;33605;48.822;8.796;2023-04-24T09:51:34;2.00;;;1.90;;
47844;SDS011;33605;48.822;8.796;2023-04-24T09:54:04;4.80;;;1.90;;
47844;SDS011;33605;48.822;8.796;2023-04-24T09:56:41;2.10;;;1.90;;
47844;SDS011;33605;48.822;8.796;2023-04-24T09:59:11;2.00;;;1.73;;
47844;SDS011;33605;48.822;8.796;2023-04-24T10:01:38;2.63;;;1.97;;
47844;SDS011;33605;48.822;8.796;2023-04-24T10:04:14;3.40;;;1.90;;
47844;SDS011;33605;48.822;8.796;2023-04-24T10:06:41;2.50;;;2.00;;
47844;SDS011;33605;48.822;8.796;2023-04-24T10:09:07;4.40;;;1.97;;
47844;SDS011;33605;48.822;8.796;2023-04-24T10:11:35;1.97;;;1.77;;
47844;SDS011;33605;48.822;8.796;2023-04-24T10:14:01;1.83;;;1.73;;
47844;SDS011;33605;48.822;8.796;2023-04-24T10:16:27;2.03;;;1.70;;
47844;SDS011;33605;48.822;8.796;2023-04-24T10:18:55;2.70;;;2.10;;
47844;SDS011;33605;48.822;8.796;2023-04-24T10:21:22;2.93;;;2.27;;
47844;SDS011;33605;48.822;8.796;2023-04-24T10:23:48;2.30;;;1.90;;
47844;SDS011;33605;48.822;8.796;2023-04-24T10:26:15;7.70;;;2.40;;
47844;SDS011;33605;48.822;8.796;2023-04-24T10:28:45;2.27;;;2.00;;
47844;SDS011;33605;48.822;8.796;2023-04-24T10:31:13;1.93;;;1.73;;
47844;SDS011;33605;48.822;8.796;2023-04-24T10:33:42;3.10;;;2.00;;
47844;SDS011;33605;48.822;8.796;2023-04-24T10:36:09;1.80;;;1.60;;
47844;SDS011;33605;48.822;8.796;2023-04-24T10:38:36;1.90;;;1.80;;
47844;SDS011;33605;48.822;8.796;2023-04-24T10:41:11;3.23;;;1.97;;
47844;SDS011;33605;48.822;8.796;2023-04-24T10:43:44;3.00;;;2.07;;
47844;SDS011;33605;48.822;8.796;2023-04-24T10:46:10;2.67;;;2.00;;
47844;SDS011;33605;48.822;8.796;2023-04-24T10:48:51;2.20;;;1.77;;
47844;SDS011;33605;48.822;8.796;2023-04-24T10:51:21;3.87;;;2.43;;
47844;SDS011;33605;48.822;8.796;2023-04-24T10:53:49;3.03;;;2.30;;
47844;SDS011;33605;48.822;8.796;2023-04-24T10:56:16;2.20;;;1.97;;
47844;SDS011;33605;48.822;8.796;2023-04-24T10:58:49;2.50;;;2.30;;
47844;SDS011;33605;48.822;8.796;2023-04-24T11:01:27;2.10;;;1.90;;
47844;SDS011;33605;48.822;8.796;2023-04-24T11:03:55;5.43;;;2.70;;
47844;SDS011;33605;48.822;8.796;2023-04-24T11:06:28;2.50;;;2.27;;
47844;SDS011;33605;48.822;8.796;2023-04-24T11:08:59;2.63;;;2.00;;
47844;SDS011;33605;48.822;8.796;2023-04-24T11:11:29;5.27;;;3.63;;
47844;SDS011;33605;48.822;8.796;2023-04-24T11:18:51;2.03;;;1.93;;
47844;SDS011;33605;48.822;8.796;2023-04-24T11:21:25;3.50;;;2.10;;
47844;SDS011;33605;48.822;8.796;2023-04-24T11:23:56;6.93;;;2.67;;
47844;SDS011;33605;48.822;8.796;2023-04-24T11:26:22;2.00;;;1.80;;
47844;SDS011;33605;48.822;8.796;2023-04-24T11:29:05;2.40;;;2.20;;
47844;SDS011;33605;48.822;8.796;2023-04-24T11:31:36;2.20;;;2.10;;
47844;SDS011;33605;48.822;8.796;2023-04-24T11:34:13;5.53;;;2.90;;
47844;SDS011;33605;48.822;8.796;2023-04-24T11:36:39;3.00;;;2.10;;
47844;SDS011;33605;48.822;8.796;2023-04-24T11:39:08;2.87;;;2.27;;
47844;SDS011;33605;48.822;8.796;2023-04-24T11:41:35;2.50;;;2.30;;
47844;SDS011;33605;48.822;8.796;2023-04-24T11:44:01;2.13;;;1.90;;
47844;SDS011;33605;48.822;8.796;2023-04-24T11:46:29;2.07;;;1.93;;
47844;SDS011;33605;48.822;8.796;2023-04-24T11:48:56;2.87;;;2.07;;
47844;SDS011;33605;48.822;8.796;2023-04-24T11:51:22;3.40;;;2.10;;
47844;SDS011;33605;48.822;8.796;2023-04-24T11:53:50;3.07;;;1.70;;
47844;SDS011;33605;48.822;8.796;2023-04-24T11:56:20;2.50;;;2.30;;
47844;SDS011;33605;48.822;8.796;2023-04-24T11:58:47;1.90;;;1.70;;
47844;SDS011;33605;48.822;8.796;2023-04-24T12:01:13;2.50;;;2.30;;
47844;SDS011;33605;48.822;8.796;2023-04-24T12:03:46;2.17;;;1.97;;
47844;SDS011;33605;48.822;8.796;2023-04-24T12:06:13;2.87;;;2.40;;
47844;SDS011;33605;48.822;8.796;2023-04-24T12:08:39;2.97;;;2.30;;
47844;SDS011;33605;48.822;8.796;2023-04-24T12:11:05;2.50;;;2.30;;
47844;SDS011;33605;48.822;8.796;2023-04-24T12:13:32;1.93;;;1.83;;
47844;SDS011;33605;48.822;8.796;2023-04-24T12:15:58;2.97;;;2.43;;
47844;SDS011;33605;48.822;8.796;2023-04-24T12:18:24;3.10;;;2.50;;
47844;SDS011;33605;48.822;8.796;2023-04-24T12:20:51;2.33;;;2.13;;
47844;SDS011;33605;48.822;8.796;2023-04-24T12:23:32;2.10;;;1.90;;
47844;SDS011;33605;48.822;8.796;2023-04-24T12:26:00;1.80;;;1.70;;
47844;SDS011;33605;48.822;8.796;2023-04-24T12:28:34;2.10;;;1.90;;
47844;SDS011;33605;48.822;8.796;2023-04-24T12:31:00;2.10;;;1.90;;
47844;SDS011;33605;48.822;8.796;2023-04-24T12:33:26;3.33;;;1.90;;
47844;SDS011;33605;48.822;8.796;2023-04-24T12:35:52;2.30;;;2.10;;
47844;SDS011;33605;48.822;8.796;2023-04-24T12:38:24;4.03;;;2.10;;
47844;SDS011;33605;48.822;8.796;2023-04-24T12:41:01;2.47;;;1.87;;
47844;SDS011;33605;48.822;8.796;2023-04-24T12:43:51;2.60;;;2.40;;
47844;SDS011;33605;48.822;8.796;2023-04-24T12:46:18;2.53;;;2.33;;
47844;SDS011;33605;48.822;8.796;2023-04-24T12:48:44;5.33;;;4.40;;
47844;SDS011;33605;48.822;8.796;2023-04-24T12:51:10;4.40;;;2.90;;
47844;SDS011;33605;48.822;8.796;2023-04-24T12:53:36;4.20;;;2.50;;
47844;SDS011;33605;48.822;8.796;2023-04-24T12:56:02;6.13;;;4.33;;
47844;SDS011;33605;48.822;8.796;2023-04-24T12:58:28;2.83;;;2.60;;
47844;SDS011;33605;48.822;8.796;2023-04-24T13:00:54;12.27;;;7.60;;
47844;SDS011;33605;48.822;8.796;2023-04-24T13:03:20;3.20;;;2.90;;
47844;SDS011;33605;48.822;8.796;2023-04-24T13:05:47;2.87;;;2.67;;
47844;SDS011;33605;48.822;8.796;2023-04-24T13:08:13;3.70;;;3.40;;
47844;SDS011;33605;48.822;8.796;2023-04-24T13:10:39;3.23;;;2.60;;
47844;SDS011;33605;48.822;8.796;2023-04-24T13:13:06;2.90;;;2.70;;
47844;SDS011;33605;48.822;8.796;2023-04-24T13:15:32;2.93;;;2.60;;
47844;SDS011;33605;48.822;8.796;2023-04-24T13:17:58;2.47;;;2.10;;
47844;SDS011;33605;48.822;8.796;2023-04-24T13:20:24;2.40;;;2.20;;
47844;SDS011;33605;48.822;8.796;2023-04-24T13:22:51;2.50;;;2.30;;
47844;SDS011;33605;48.822;8.796;2023-04-24T13:25:16;2.37;;;2.20;;
47844;SDS011;33605;48.822;8.796;2023-04-24T13:27:42;2.90;;;2.60;;
47844;SDS011;33605;48.822;8.796;2023-04-24T13:30:09;4.37;;;2.83;;
47844;SDS011;33605;48.822;8.796;2023-04-24T13:32:35;3.30;;;2.67;;
47844;SDS011;33605;48.822;8.796;2023-04-24T13:35:01;2.00;;;1.90;;
47844;SDS011;33605;48.822;8.796;2023-04-24T13:37:27;2.63;;;2.43;;
47844;SDS011;33605;48.822;8.796;2023-04-24T13:39:53;3.30;;;3.00;;
47844;SDS011;33605;48.822;8.796;2023-04-24T13:42:19;2.53;;;2.07;;
47844;SDS011;33605;48.822;8.796;2023-04-24T13:44:45;3.00;;;2.73;;
47844;SDS011;33605;48.822;8.796;2023-04-24T13:47:11;2.70;;;2.50;;
47844;SDS011;33605;48.822;8.796;2023-04-24T13:49:37;3.13;;;2.47;;
47844;SDS011;33605;48.822;8.796;2023-04-24T13:52:03;5.43;;;2.60;;
47844;SDS011;33605;48.822;8.796;2023-04-24T13:54:29;3.53;;;3.23;;
47844;SDS011;33605;48.822;8.796;2023-04-24T13:56:57;4.00;;;3.43;;
47844;SDS011;33605;48.822;8.796;2023-04-24T13:59:23;6.57;;;4.20;;
47844;SDS011;33605;48.822;8.796;2023-04-24T14:01:50;4.00;;;3.20;;
47844;SDS011;33605;48.822;8.796;2023-04-24T14:04:15;4.53;;;3.57;;
47844;SDS011;33605;48.822;8.796;2023-04-24T14:06:41;9.40;;;4.67;;
47844;SDS011;33605;48.822;8.796;2023-04-24T14:09:07;2.67;;;2.47;;
47844;SDS011;33605;48.822;8.796;2023-04-24T14:11:33;3.60;;;2.93;;
47844;SDS011;33605;48.822;8.796;2023-04-24T14:13:59;5.47;;;3.70;;
47844;SDS011;33605;48.822;8.796;2023-04-24T14:16:25;6.70;;;3.83;;
47844;SDS011;33605;48.822;8.796;2023-04-24T14:18:51;5.47;;;4.10;;
47844;SDS011;33605;48.822;8.796;2023-04-24T14:21:17;3.20;;;2.90;;
47844;SDS011;33605;48.822;8.796;2023-04-24T14:23:43;3.87;;;3.03;;
47844;SDS011;33605;48.822;8.796;2023-04-24T14:26:10;3.10;;;2.80;;
47844;SDS011;33605;48.822;8.796;2023-04-24T14:28:36;4.53;;;3.20;;
47844;SDS011;33605;48.822;8.796;2023-04-24T14:31:02;3.00;;;2.53;;
47844;SDS011;33605;48.822;8.796;2023-04-24T14:33:28;3.37;;;2.70;;
47844;SDS011;33605;48.822;8.796;2023-04-24T14:35:54;2.40;;;2.20;;
47844;SDS011;33605;48.822;8.796;2023-04-24T14:38:21;2.63;;;2.40;;
47844;SDS011;33605;48.822;8.796;2023-04-24T14:40:47;3.53;;;2.00;;
47844;SDS011;33605;48.822;8.796;2023-04-24T14:43:13;2.60;;;2.40;;
47844;SDS011;33605;48.822;8.796;2023-04-24T14:45:39;2.57;;;2.37;;
47844;SDS011;33605;48.822;8.796;2023-04-24T14:48:06;4.70;;;2.60;;
47844;SDS011;33605;48.822;8.796;2023-04-24T14:50:33;2.70;;;2.50;;